Seven Springs, North Carolina
Current Conditions -  °F | °C
As of 7:58 PM on Wednesday 22 Oct 2014 (Local Time) from KGSB Reporting Station
Scattered Clouds Scattered Clouds  
Wind Chill: 60°   Ceiling: Unl
Heat Index: 60°   Visibility: 10mi
Dew Point: 47°   Wind: 0mph
Humidity: 63%   Direction: NA
Pressure: 29.95"   Gusts: NA
Location:  35.23°N, 77.85°W
Report Text: KGSB 222358Z AUTO 00000KT 10SM SCT070 15/09 A2995 RMK AO2 SLP145 T01540085 10197 20154 52010 $
Loading
Personal Weather Stations






























Interactive Weather Map
Tropical Storm Tracking
New forecast layout! Learn more

10-Day Weather Forecast

Advertisements
Track Severe Weather on mobile